sensor_id;sensor_type;location;lat;lon;timestamp;P1;durP1;ratioP1;P2;durP2;ratioP2
17193;SDS011;8713;48.388;10.928;2023-03-01T07:02:02;17.52;;;10.30;;
17193;SDS011;8713;48.388;10.928;2023-03-01T07:03:31;14.23;;;7.40;;
17193;SDS011;8713;48.388;10.928;2023-03-01T07:05:01;14.73;;;8.25;;
17193;SDS011;8713;48.388;10.928;2023-03-01T07:06:30;15.77;;;9.68;;
17193;SDS011;8713;48.388;10.928;2023-03-01T07:08:00;13.52;;;7.60;;
17193;SDS011;8713;48.388;10.928;2023-03-01T07:09:30;15.02;;;8.48;;
17193;SDS011;8713;48.388;10.928;2023-03-01T07:11:00;17.42;;;9.43;;
17193;SDS011;8713;48.388;10.928;2023-03-01T07:12:31;15.05;;;8.20;;
17193;SDS011;8713;48.388;10.928;2023-03-01T07:14:01;17.33;;;9.50;;
17193;SDS011;8713;48.388;10.928;2023-03-01T07:15:30;16.60;;;9.65;;
17193;SDS011;8713;48.388;10.928;2023-03-01T07:17:02;19.52;;;9.68;;
17193;SDS011;8713;48.388;10.928;2023-03-01T07:18:31;17.40;;;9.20;;
17193;SDS011;8713;48.388;10.928;2023-03-01T07:20:01;15.98;;;8.80;;
17193;SDS011;8713;48.388;10.928;2023-03-01T07:21:30;16.45;;;8.70;;
17193;SDS011;8713;48.388;10.928;2023-03-01T07:23:00;16.38;;;8.75;;
17193;SDS011;8713;48.388;10.928;2023-03-01T07:24:30;12.05;;;7.55;;
17193;SDS011;8713;48.388;10.928;2023-03-01T07:25:59;18.13;;;10.38;;
17193;SDS011;8713;48.388;10.928;2023-03-01T07:27:29;15.38;;;9.20;;
17193;SDS011;8713;48.388;10.928;2023-03-01T07:28:59;17.08;;;9.48;;
17193;SDS011;8713;48.388;10.928;2023-03-01T07:30:30;14.95;;;8.65;;
17193;SDS011;8713;48.388;10.928;2023-03-01T07:31:59;16.98;;;9.07;;
17193;SDS011;8713;48.388;10.928;2023-03-01T07:33:29;17.20;;;9.75;;
17193;SDS011;8713;48.388;10.928;2023-03-01T07:34:59;15.73;;;8.85;;
17193;SDS011;8713;48.388;10.928;2023-03-01T07:36:28;15.52;;;8.52;;
17193;SDS011;8713;48.388;10.928;2023-03-01T07:37:58;16.00;;;9.77;;
17193;SDS011;8713;48.388;10.928;2023-03-01T07:39:27;16.02;;;8.38;;
17193;SDS011;8713;48.388;10.928;2023-03-01T07:41:00;12.35;;;7.53;;
17193;SDS011;8713;48.388;10.928;2023-03-01T07:42:32;15.30;;;8.27;;
17193;SDS011;8713;48.388;10.928;2023-03-01T07:44:01;14.73;;;8.27;;
17193;SDS011;8713;48.388;10.928;2023-03-01T07:45:30;16.88;;;9.60;;
17193;SDS011;8713;48.388;10.928;2023-03-01T07:47:00;14.68;;;8.45;;
17193;SDS011;8713;48.388;10.928;2023-03-01T07:48:30;15.93;;;9.38;;
17193;SDS011;8713;48.388;10.928;2023-03-01T07:50:01;16.05;;;9.30;;
17193;SDS011;8713;48.388;10.928;2023-03-01T07:51:31;15.38;;;9.63;;
17193;SDS011;8713;48.388;10.928;2023-03-01T07:53:00;16.30;;;9.65;;
17193;SDS011;8713;48.388;10.928;2023-03-01T07:54:30;14.98;;;8.90;;
17193;SDS011;8713;48.388;10.928;2023-03-01T07:56:07;16.77;;;9.27;;
17193;SDS011;8713;48.388;10.928;2023-03-01T07:57:42;18.50;;;9.80;;
17193;SDS011;8713;48.388;10.928;2023-03-01T07:59:12;16.42;;;9.27;;
17193;SDS011;8713;48.388;10.928;2023-03-01T08:00:42;16.77;;;8.90;;
17193;SDS011;8713;48.388;10.928;2023-03-01T08:02:11;17.73;;;8.90;;
17193;SDS011;8713;48.388;10.928;2023-03-01T08:03:40;15.23;;;9.35;;
17193;SDS011;8713;48.388;10.928;2023-03-01T08:05:11;15.63;;;8.95;;
17193;SDS011;8713;48.388;10.928;2023-03-01T08:06:40;14.77;;;8.88;;
17193;SDS011;8713;48.388;10.928;2023-03-01T08:08:10;15.50;;;8.93;;
17193;SDS011;8713;48.388;10.928;2023-03-01T08:09:39;14.20;;;8.55;;
17193;SDS011;8713;48.388;10.928;2023-03-01T08:11:10;16.35;;;9.38;;
17193;SDS011;8713;48.388;10.928;2023-03-01T08:12:41;15.43;;;9.25;;
17193;SDS011;8713;48.388;10.928;2023-03-01T08:14:11;19.75;;;9.63;;
17193;SDS011;8713;48.388;10.928;2023-03-01T08:15:40;16.23;;;8.70;;
17193;SDS011;8713;48.388;10.928;2023-03-01T08:17:10;13.80;;;7.63;;
17193;SDS011;8713;48.388;10.928;2023-03-01T08:18:43;17.60;;;9.23;;
17193;SDS011;8713;48.388;10.928;2023-03-01T08:20:13;14.15;;;8.25;;
17193;SDS011;8713;48.388;10.928;2023-03-01T08:21:42;12.90;;;7.43;;
17193;SDS011;8713;48.388;10.928;2023-03-01T08:23:12;16.17;;;9.23;;
17193;SDS011;8713;48.388;10.928;2023-03-01T08:24:42;13.50;;;8.15;;
17193;SDS011;8713;48.388;10.928;2023-03-01T08:26:12;16.77;;;9.23;;
17193;SDS011;8713;48.388;10.928;2023-03-01T08:27:25;15.18;;;8.98;;
17193;SDS011;8713;48.388;10.928;2023-03-01T08:28:35;17.45;;;9.38;;
17193;SDS011;8713;48.388;10.928;2023-03-01T08:29:45;16.42;;;10.18;;
17193;SDS011;8713;48.388;10.928;2023-03-01T08:30:54;17.58;;;10.18;;
17193;SDS011;8713;48.388;10.928;2023-03-01T08:32:04;16.70;;;9.73;;
17193;SDS011;8713;48.388;10.928;2023-03-01T08:33:13;13.43;;;8.90;;
17193;SDS011;8713;48.388;10.928;2023-03-01T08:34:23;16.02;;;9.15;;
17193;SDS011;8713;48.388;10.928;2023-03-01T08:35:32;15.13;;;9.02;;
17193;SDS011;8713;48.388;10.928;2023-03-01T08:36:43;16.02;;;10.05;;
17193;SDS011;8713;48.388;10.928;2023-03-01T08:37:54;16.02;;;8.93;;
17193;SDS011;8713;48.388;10.928;2023-03-01T08:39:04;16.95;;;9.82;;
17193;SDS011;8713;48.388;10.928;2023-03-01T08:40:13;15.88;;;9.20;;
17193;SDS011;8713;48.388;10.928;2023-03-01T08:41:23;15.10;;;8.88;;
17193;SDS011;8713;48.388;10.928;2023-03-01T08:42:33;15.32;;;8.73;;
17193;SDS011;8713;48.388;10.928;2023-03-01T08:43:43;15.80;;;8.63;;
17193;SDS011;8713;48.388;10.928;2023-03-01T08:44:52;16.75;;;9.23;;
17193;SDS011;8713;48.388;10.928;2023-03-01T08:46:02;16.10;;;10.13;;
17193;SDS011;8713;48.388;10.928;2023-03-01T08:47:29;15.95;;;9.25;;
17193;SDS011;8713;48.388;10.928;2023-03-01T08:48:39;18.00;;;10.07;;
17193;SDS011;8713;48.388;10.928;2023-03-01T08:49:51;16.52;;;9.15;;
17193;SDS011;8713;48.388;10.928;2023-03-01T08:51:18;18.17;;;10.20;;
17193;SDS011;8713;48.388;10.928;2023-03-01T08:52:27;16.63;;;9.77;;
17193;SDS011;8713;48.388;10.928;2023-03-01T08:53:39;15.98;;;10.27;;
17193;SDS011;8713;48.388;10.928;2023-03-01T08:54:48;18.92;;;10.77;;
17193;SDS011;8713;48.388;10.928;2023-03-01T08:55:59;17.60;;;10.68;;
17193;SDS011;8713;48.388;10.928;2023-03-01T08:57:11;16.38;;;10.07;;
17193;SDS011;8713;48.388;10.928;2023-03-01T08:58:21;17.73;;;9.15;;
17193;SDS011;8713;48.388;10.928;2023-03-01T08:59:30;17.90;;;9.60;;
17193;SDS011;8713;48.388;10.928;2023-03-01T09:00:44;18.73;;;9.82;;
17193;SDS011;8713;48.388;10.928;2023-03-01T09:02:12;13.98;;;8.32;;
17193;SDS011;8713;48.388;10.928;2023-03-01T09:03:25;17.20;;;9.65;;
17193;SDS011;8713;48.388;10.928;2023-03-01T09:04:36;14.15;;;9.20;;
17193;SDS011;8713;48.388;10.928;2023-03-01T09:05:45;18.40;;;10.73;;
17193;SDS011;8713;48.388;10.928;2023-03-01T09:07:13;17.88;;;9.63;;
17193;SDS011;8713;48.388;10.928;2023-03-01T09:08:42;16.77;;;9.50;;
17193;SDS011;8713;48.388;10.928;2023-03-01T09:10:14;14.40;;;8.85;;
17193;SDS011;8713;48.388;10.928;2023-03-01T09:11:24;17.27;;;9.15;;
17193;SDS011;8713;48.388;10.928;2023-03-01T09:12:52;18.40;;;9.40;;
17193;SDS011;8713;48.388;10.928;2023-03-01T09:14:21;17.48;;;9.63;;
17193;SDS011;8713;48.388;10.928;2023-03-01T09:15:49;16.70;;;9.30;;
17193;SDS011;8713;48.388;10.928;2023-03-01T09:17:18;13.80;;;8.55;;
17193;SDS011;8713;48.388;10.928;2023-03-01T09:18:52;14.63;;;8.68;;
17193;SDS011;8713;48.388;10.928;2023-03-01T09:20:22;16.65;;;8.68;;
17193;SDS011;8713;48.388;10.928;2023-03-01T09:21:49;19.45;;;9.63;;
17193;SDS011;8713;48.388;10.928;2023-03-01T09:23:20;19.85;;;9.55;;
17193;SDS011;8713;48.388;10.928;2023-03-01T09:24:48;18.30;;;9.38;;
17193;SDS011;8713;48.388;10.928;2023-03-01T09:26:20;16.95;;;8.85;;
17193;SDS011;8713;48.388;10.928;2023-03-01T09:27:53;16.80;;;9.15;;
17193;SDS011;8713;48.388;10.928;2023-03-01T09:29:22;16.48;;;8.85;;
17193;SDS011;8713;48.388;10.928;2023-03-01T09:30:50;17.45;;;9.98;;
17193;SDS011;8713;48.388;10.928;2023-03-01T09:32:18;21.75;;;11.50;;
17193;SDS011;8713;48.388;10.928;2023-03-01T09:33:47;17.85;;;9.95;;
17193;SDS011;8713;48.388;10.928;2023-03-01T09:35:17;21.88;;;11.73;;
17193;SDS011;8713;48.388;10.928;2023-03-01T09:36:47;16.85;;;10.85;;
17193;SDS011;8713;48.388;10.928;2023-03-01T09:38:15;17.88;;;9.40;;
17193;SDS011;8713;48.388;10.928;2023-03-01T09:39:44;16.35;;;9.00;;
17193;SDS011;8713;48.388;10.928;2023-03-01T09:40:53;14.73;;;9.25;;
17193;SDS011;8713;48.388;10.928;2023-03-01T09:42:22;18.05;;;10.50;;
17193;SDS011;8713;48.388;10.928;2023-03-01T09:43:42;16.42;;;10.18;;
17193;SDS011;8713;48.388;10.928;2023-03-01T09:45:21;17.80;;;9.88;;
17193;SDS011;8713;48.388;10.928;2023-03-01T09:47:00;23.55;;;10.40;;
17193;SDS011;8713;48.388;10.928;2023-03-01T09:48:29;20.05;;;10.70;;
17193;SDS011;8713;48.388;10.928;2023-03-01T09:50:12;19.83;;;9.63;;
17193;SDS011;8713;48.388;10.928;2023-03-01T09:51:47;17.60;;;10.40;;
17193;SDS011;8713;48.388;10.928;2023-03-01T09:53:27;17.77;;;9.63;;
17193;SDS011;8713;48.388;10.928;2023-03-01T09:55:04;15.98;;;9.00;;
17193;SDS011;8713;48.388;10.928;2023-03-01T09:56:44;18.75;;;9.90;;
17193;SDS011;8713;48.388;10.928;2023-03-01T09:58:35;17.00;;;10.60;;
17193;SDS011;8713;48.388;10.928;2023-03-01T10:01:56;17.50;;;10.07;;
17193;SDS011;8713;48.388;10.928;2023-03-01T10:04:17;18.42;;;11.93;;
17193;SDS011;8713;48.388;10.928;2023-03-01T10:08:06;17.13;;;9.38;;
17193;SDS011;8713;48.388;10.928;2023-03-01T10:09:49;18.42;;;10.32;;
17193;SDS011;8713;48.388;10.928;2023-03-01T10:11:23;17.63;;;9.25;;
17193;SDS011;8713;48.388;10.928;2023-03-01T10:12:40;21.00;;;11.07;;
17193;SDS011;8713;48.388;10.928;2023-03-01T10:16:05;15.43;;;9.50;;
17193;SDS011;8713;48.388;10.928;2023-03-01T10:17:48;16.02;;;9.35;;
17193;SDS011;8713;48.388;10.928;2023-03-01T10:19:02;18.20;;;10.52;;
17193;SDS011;8713;48.388;10.928;2023-03-01T10:20:35;14.60;;;8.82;;
17193;SDS011;8713;48.388;10.928;2023-03-01T10:22:44;20.13;;;10.70;;
17193;SDS011;8713;48.388;10.928;2023-03-01T10:24:10;15.93;;;9.45;;
17193;SDS011;8713;48.388;10.928;2023-03-01T10:25:55;15.50;;;8.68;;
17193;SDS011;8713;48.388;10.928;2023-03-01T10:27:54;17.60;;;9.77;;
17193;SDS011;8713;48.388;10.928;2023-03-01T10:30:12;16.10;;;9.55;;
17193;SDS011;8713;48.388;10.928;2023-03-01T10:33:25;17.98;;;9.63;;
17193;SDS011;8713;48.388;10.928;2023-03-01T10:34:57;14.25;;;9.20;;
17193;SDS011;8713;48.388;10.928;2023-03-01T10:36:18;17.63;;;10.15;;
17193;SDS011;8713;48.388;10.928;2023-03-01T10:37:56;16.08;;;9.43;;
17193;SDS011;8713;48.388;10.928;2023-03-01T10:39:34;15.95;;;9.40;;
17193;SDS011;8713;48.388;10.928;2023-03-01T10:41:05;14.98;;;8.95;;
17193;SDS011;8713;48.388;10.928;2023-03-01T10:42:35;15.18;;;9.43;;
17193;SDS011;8713;48.388;10.928;2023-03-01T10:44:07;15.35;;;9.95;;
17193;SDS011;8713;48.388;10.928;2023-03-01T10:45:39;14.07;;;8.85;;
17193;SDS011;8713;48.388;10.928;2023-03-01T10:47:21;15.75;;;9.23;;
17193;SDS011;8713;48.388;10.928;2023-03-01T10:50:45;16.52;;;9.38;;
17193;SDS011;8713;48.388;10.928;2023-03-01T10:52:40;15.65;;;8.75;;
17193;SDS011;8713;48.388;10.928;2023-03-01T10:54:20;16.92;;;9.90;;
17193;SDS011;8713;48.388;10.928;2023-03-01T10:55:57;14.65;;;9.02;;
17193;SDS011;8713;48.388;10.928;2023-03-01T10:57:30;14.32;;;8.38;;
17193;SDS011;8713;48.388;10.928;2023-03-01T10:59:10;13.48;;;7.85;;
17193;SDS011;8713;48.388;10.928;2023-03-01T11:00:58;14.63;;;9.10;;
17193;SDS011;8713;48.388;10.928;2023-03-01T11:02:33;16.50;;;10.02;;
17193;SDS011;8713;48.388;10.928;2023-03-01T11:05:35;18.63;;;10.45;;
17193;SDS011;8713;48.388;10.928;2023-03-01T11:07:03;16.27;;;9.40;;
17193;SDS011;8713;48.388;10.928;2023-03-01T11:08:32;17.05;;;10.23;;
17193;SDS011;8713;48.388;10.928;2023-03-01T11:09:48;16.73;;;9.88;;
17193;SDS011;8713;48.388;10.928;2023-03-01T11:11:03;17.05;;;10.65;;
17193;SDS011;8713;48.388;10.928;2023-03-01T11:12:14;16.70;;;9.25;;
17193;SDS011;8713;48.388;10.928;2023-03-01T11:13:25;18.02;;;10.68;;
17193;SDS011;8713;48.388;10.928;2023-03-01T11:14:37;18.70;;;10.60;;
17193;SDS011;8713;48.388;10.928;2023-03-01T11:15:59;14.18;;;9.13;;
17193;SDS011;8713;48.388;10.928;2023-03-01T11:17:30;14.43;;;8.15;;
17193;SDS011;8713;48.388;10.928;2023-03-01T11:18:40;13.93;;;9.40;;
17193;SDS011;8713;48.388;10.928;2023-03-01T11:22:12;16.65;;;8.90;;
17193;SDS011;8713;48.388;10.928;2023-03-01T11:23:44;16.85;;;10.35;;
17193;SDS011;8713;48.388;10.928;2023-03-01T11:25:14;20.10;;;10.85;;
17193;SDS011;8713;48.388;10.928;2023-03-01T11:26:44;15.90;;;8.93;;
17193;SDS011;8713;48.388;10.928;2023-03-01T11:28:19;15.77;;;9.50;;
17193;SDS011;8713;48.388;10.928;2023-03-01T11:29:56;18.05;;;9.40;;
17193;SDS011;8713;48.388;10.928;2023-03-01T11:31:31;15.23;;;9.07;;
17193;SDS011;8713;48.388;10.928;2023-03-01T11:32:43;16.02;;;9.35;;
17193;SDS011;8713;48.388;10.928;2023-03-01T11:34:17;15.75;;;9.35;;
17193;SDS011;8713;48.388;10.928;2023-03-01T11:35:33;14.30;;;9.00;;
17193;SDS011;8713;48.388;10.928;2023-03-01T11:36:56;16.45;;;9.48;;
17193;SDS011;8713;48.388;10.928;2023-03-01T11:39:47;17.48;;;9.88;;
17193;SDS011;8713;48.388;10.928;2023-03-01T11:41:28;19.90;;;10.82;;
17193;SDS011;8713;48.388;10.928;2023-03-01T11:44:26;18.83;;;10.85;;
17193;SDS011;8713;48.388;10.928;2023-03-01T11:46:01;18.85;;;11.65;;
17193;SDS011;8713;48.388;10.928;2023-03-01T11:48:14;20.85;;;12.00;;
17193;SDS011;8713;48.388;10.928;2023-03-01T11:53:31;18.30;;;10.85;;
17193;SDS011;8713;48.388;10.928;2023-03-01T11:57:13;15.77;;;10.43;;
17193;SDS011;8713;48.388;10.928;2023-03-01T11:59:34;16.45;;;10.98;;
17193;SDS011;8713;48.388;10.928;2023-03-01T12:01:29;16.23;;;10.32;;
17193;SDS011;8713;48.388;10.928;2023-03-01T12:04:54;15.73;;;10.43;;
17193;SDS011;8713;48.388;10.928;2023-03-01T12:07:07;15.55;;;10.23;;
17193;SDS011;8713;48.388;10.928;2023-03-01T12:09:09;20.38;;;10.30;;
17193;SDS011;8713;48.388;10.928;2023-03-01T12:12:57;12.45;;;8.68;;
17193;SDS011;8713;48.388;10.928;2023-03-01T12:22:30;13.27;;;8.23;;
17193;SDS011;8713;48.388;10.928;2023-03-01T12:25:34;12.90;;;8.95;;
17193;SDS011;8713;48.388;10.928;2023-03-01T12:34:49;17.85;;;9.68;;
17193;SDS011;8713;48.388;10.928;2023-03-01T12:38:49;13.20;;;8.50;;
17193;SDS011;8713;48.388;10.928;2023-03-01T12:49:40;14.80;;;9.10;;
17193;SDS011;8713;48.388;10.928;2023-03-01T12:51:14;13.93;;;8.73;;
17193;SDS011;8713;48.388;10.928;2023-03-01T12:52:44;15.13;;;8.75;;
17193;SDS011;8713;48.388;10.928;2023-03-01T12:54:07;13.75;;;8.85;;
17193;SDS011;8713;48.388;10.928;2023-03-01T12:55:43;15.52;;;9.70;;
17193;SDS011;8713;48.388;10.928;2023-03-01T12:57:17;12.98;;;8.18;;
17193;SDS011;8713;48.388;10.928;2023-03-01T13:00:35;13.52;;;8.77;;
17193;SDS011;8713;48.388;10.928;2023-03-01T13:02:22;14.75;;;8.70;;
17193;SDS011;8713;48.388;10.928;2023-03-01T13:09:04;12.95;;;8.35;;
17193;SDS011;8713;48.388;10.928;2023-03-01T13:10:47;14.90;;;8.80;;
17193;SDS011;8713;48.388;10.928;2023-03-01T13:15:53;13.20;;;8.63;;
17193;SDS011;8713;48.388;10.928;2023-03-01T13:17:31;14.85;;;7.80;;
17193;SDS011;8713;48.388;10.928;2023-03-01T13:19:13;12.63;;;7.72;;
17193;SDS011;8713;48.388;10.928;2023-03-01T13:20:47;14.80;;;9.20;;
17193;SDS011;8713;48.388;10.928;2023-03-01T13:22:26;15.00;;;8.32;;
17193;SDS011;8713;48.388;10.928;2023-03-01T13:23:40;14.68;;;9.50;;
17193;SDS011;8713;48.388;10.928;2023-03-01T13:25:13;15.20;;;9.63;;
17193;SDS011;8713;48.388;10.928;2023-03-01T13:28:55;12.88;;;8.20;;
17193;SDS011;8713;48.388;10.928;2023-03-01T13:30:38;13.35;;;8.15;;
17193;SDS011;8713;48.388;10.928;2023-03-01T13:32:07;12.35;;;8.35;;
17193;SDS011;8713;48.388;10.928;2023-03-01T13:33:59;13.07;;;8.65;;
17193;SDS011;8713;48.388;10.928;2023-03-01T13:35:43;14.75;;;8.55;;
17193;SDS011;8713;48.388;10.928;2023-03-01T13:37:19;14.40;;;8.80;;
17193;SDS011;8713;48.388;10.928;2023-03-01T13:41:56;13.43;;;7.85;;
17193;SDS011;8713;48.388;10.928;2023-03-01T13:43:44;14.50;;;9.65;;
17193;SDS011;8713;48.388;10.928;2023-03-01T13:45:18;13.93;;;8.80;;
17193;SDS011;8713;48.388;10.928;2023-03-01T13:48:34;16.25;;;8.75;;
17193;SDS011;8713;48.388;10.928;2023-03-01T13:50:03;14.38;;;8.45;;
17193;SDS011;8713;48.388;10.928;2023-03-01T13:51:13;15.60;;;9.05;;
17193;SDS011;8713;48.388;10.928;2023-03-01T13:52:30;14.98;;;9.00;;
17193;SDS011;8713;48.388;10.928;2023-03-01T13:53:50;11.82;;;7.68;;
17193;SDS011;8713;48.388;10.928;2023-03-01T13:55:01;11.85;;;7.82;;
17193;SDS011;8713;48.388;10.928;2023-03-01T13:56:24;14.90;;;8.13;;
17193;SDS011;8713;48.388;10.928;2023-03-01T13:57:59;14.13;;;8.98;;
17193;SDS011;8713;48.388;10.928;2023-03-01T13:59:29;17.42;;;9.88;;
17193;SDS011;8713;48.388;10.928;2023-03-01T14:00:39;13.50;;;9.02;;
17193;SDS011;8713;48.388;10.928;2023-03-01T14:01:56;12.43;;;8.20;;
17193;SDS011;8713;48.388;10.928;2023-03-01T14:03:14;14.35;;;8.90;;
17193;SDS011;8713;48.388;10.928;2023-03-01T14:04:35;12.32;;;8.45;;
17193;SDS011;8713;48.388;10.928;2023-03-01T14:05:58;12.20;;;7.40;;
17193;SDS011;8713;48.388;10.928;2023-03-01T14:07:19;12.43;;;8.02;;
17193;SDS011;8713;48.388;10.928;2023-03-01T14:08:34;14.93;;;8.55;;
17193;SDS011;8713;48.388;10.928;2023-03-01T14:09:48;13.50;;;9.05;;
17193;SDS011;8713;48.388;10.928;2023-03-01T14:11:42;11.20;;;7.47;;
17193;SDS011;8713;48.388;10.928;2023-03-01T14:13:33;10.98;;;6.43;;
17193;SDS011;8713;48.388;10.928;2023-03-01T14:18:39;14.60;;;7.75;;
17193;SDS011;8713;48.388;10.928;2023-03-01T14:20:47;12.88;;;8.18;;
17193;SDS011;8713;48.388;10.928;2023-03-01T14:22:28;15.52;;;9.05;;
17193;SDS011;8713;48.388;10.928;2023-03-01T14:23:38;11.10;;;7.60;;
17193;SDS011;8713;48.388;10.928;2023-03-01T14:25:26;14.75;;;8.48;;
17193;SDS011;8713;48.388;10.928;2023-03-01T14:26:42;13.00;;;7.88;;
17193;SDS011;8713;48.388;10.928;2023-03-01T14:27:56;13.00;;;7.82;;
17193;SDS011;8713;48.388;10.928;2023-03-01T14:29:23;14.00;;;8.32;;
17193;SDS011;8713;48.388;10.928;2023-03-01T14:30:42;12.85;;;8.75;;
17193;SDS011;8713;48.388;10.928;2023-03-01T14:32:06;13.80;;;9.18;;
17193;SDS011;8713;48.388;10.928;2023-03-01T14:33:29;16.15;;;9.52;;
17193;SDS011;8713;48.388;10.928;2023-03-01T14:34:45;15.35;;;9.52;;
17193;SDS011;8713;48.388;10.928;2023-03-01T14:36:01;13.13;;;8.82;;
17193;SDS011;8713;48.388;10.928;2023-03-01T14:38:42;17.20;;;10.02;;
17193;SDS011;8713;48.388;10.928;2023-03-01T14:39:55;16.27;;;9.32;;
17193;SDS011;8713;48.388;10.928;2023-03-01T14:42:25;15.35;;;9.15;;
17193;SDS011;8713;48.388;10.928;2023-03-01T14:43:37;15.35;;;8.73;;
17193;SDS011;8713;48.388;10.928;2023-03-01T14:44:52;14.82;;;8.98;;
17193;SDS011;8713;48.388;10.928;2023-03-01T14:46:04;13.30;;;8.60;;
17193;SDS011;8713;48.388;10.928;2023-03-01T14:47:14;13.43;;;9.02;;
17193;SDS011;8713;48.388;10.928;2023-03-01T14:48:31;15.82;;;9.20;;
17193;SDS011;8713;48.388;10.928;2023-03-01T14:49:40;13.98;;;8.95;;
17193;SDS011;8713;48.388;10.928;2023-03-01T14:50:50;12.80;;;8.25;;
17193;SDS011;8713;48.388;10.928;2023-03-01T14:52:04;13.20;;;8.48;;
17193;SDS011;8713;48.388;10.928;2023-03-01T14:53:19;13.07;;;8.73;;
17193;SDS011;8713;48.388;10.928;2023-03-01T14:54:40;12.00;;;8.48;;
17193;SDS011;8713;48.388;10.928;2023-03-01T14:55:56;13.50;;;8.90;;
17193;SDS011;8713;48.388;10.928;2023-03-01T14:57:45;16.08;;;8.95;;
17193;SDS011;8713;48.388;10.928;2023-03-01T14:58:50;12.70;;;8.13;;
17193;SDS011;8713;48.388;10.928;2023-03-01T15:00:02;12.80;;;8.80;;
17193;SDS011;8713;48.388;10.928;2023-03-01T15:01:15;14.57;;;8.77;;
17193;SDS011;8713;48.388;10.928;2023-03-01T15:02:26;15.45;;;9.27;;
17193;SDS011;8713;48.388;10.928;2023-03-01T15:03:37;22.55;;;13.35;;
17193;SDS011;8713;48.388;10.928;2023-03-01T15:04:52;16.75;;;10.35;;
17193;SDS011;8713;48.388;10.928;2023-03-01T15:06:09;18.00;;;11.05;;
17193;SDS011;8713;48.388;10.928;2023-03-01T15:07:24;13.15;;;8.95;;
17193;SDS011;8713;48.388;10.928;2023-03-01T15:08:50;14.68;;;7.75;;
17193;SDS011;8713;48.388;10.928;2023-03-01T15:10:02;16.50;;;8.68;;
17193;SDS011;8713;48.388;10.928;2023-03-01T15:12:41;13.48;;;8.20;;
17193;SDS011;8713;48.388;10.928;2023-03-01T15:13:51;14.02;;;7.90;;
17193;SDS011;8713;48.388;10.928;2023-03-01T15:16:45;12.77;;;8.20;;
17193;SDS011;8713;48.388;10.928;2023-03-01T15:17:55;12.80;;;8.27;;
17193;SDS011;8713;48.388;10.928;2023-03-01T15:19:07;12.32;;;7.60;;
17193;SDS011;8713;48.388;10.928;2023-03-01T15:20:17;13.25;;;8.57;;
17193;SDS011;8713;48.388;10.928;2023-03-01T15:21:34;13.27;;;8.43;;
17193;SDS011;8713;48.388;10.928;2023-03-01T15:23:04;15.43;;;7.88;;
17193;SDS011;8713;48.388;10.928;2023-03-01T15:24:18;14.18;;;8.00;;
17193;SDS011;8713;48.388;10.928;2023-03-01T15:25:51;11.48;;;7.22;;
17193;SDS011;8713;48.388;10.928;2023-03-01T15:27:26;12.60;;;7.97;;
17193;SDS011;8713;48.388;10.928;2023-03-01T15:28:55;12.23;;;8.05;;
17193;SDS011;8713;48.388;10.928;2023-03-01T15:30:27;13.75;;;7.65;;
17193;SDS011;8713;48.388;10.928;2023-03-01T15:34:36;12.30;;;7.75;;
17193;SDS011;8713;48.388;10.928;2023-03-01T15:35:48;11.02;;;7.80;;
17193;SDS011;8713;48.388;10.928;2023-03-01T15:38:58;14.02;;;7.95;;
17193;SDS011;8713;48.388;10.928;2023-03-01T15:40:28;13.45;;;8.23;;
17193;SDS011;8713;48.388;10.928;2023-03-01T15:42:00;16.13;;;8.30;;
17193;SDS011;8713;48.388;10.928;2023-03-01T15:43:42;17.48;;;8.07;;
17193;SDS011;8713;48.388;10.928;2023-03-01T15:46:50;14.32;;;8.57;;
17193;SDS011;8713;48.388;10.928;2023-03-01T15:48:19;12.05;;;7.60;;
17193;SDS011;8713;48.388;10.928;2023-03-01T15:49:50;13.80;;;8.57;;
17193;SDS011;8713;48.388;10.928;2023-03-01T15:51:26;13.38;;;8.13;;
17193;SDS011;8713;48.388;10.928;2023-03-01T15:53:06;12.55;;;7.88;;
17193;SDS011;8713;48.388;10.928;2023-03-01T15:54:40;12.43;;;7.93;;
17193;SDS011;8713;48.388;10.928;2023-03-01T15:56:10;11.52;;;6.95;;
17193;SDS011;8713;48.388;10.928;2023-03-01T15:57:39;13.20;;;7.40;;
17193;SDS011;8713;48.388;10.928;2023-03-01T15:59:09;13.85;;;7.70;;
17193;SDS011;8713;48.388;10.928;2023-03-01T16:00:42;11.98;;;7.70;;
17193;SDS011;8713;48.388;10.928;2023-03-01T16:02:13;14.07;;;8.38;;
17193;SDS011;8713;48.388;10.928;2023-03-01T16:03:43;13.63;;;8.13;;
17193;SDS011;8713;48.388;10.928;2023-03-01T16:05:17;12.55;;;7.60;;
17193;SDS011;8713;48.388;10.928;2023-03-01T16:06:56;13.20;;;7.88;;
17193;SDS011;8713;48.388;10.928;2023-03-01T16:08:26;14.82;;;7.57;;
17193;SDS011;8713;48.388;10.928;2023-03-01T16:09:55;13.93;;;8.43;;
17193;SDS011;8713;48.388;10.928;2023-03-01T16:11:25;13.60;;;8.18;;
17193;SDS011;8713;48.388;10.928;2023-03-01T16:12:54;12.80;;;7.88;;
17193;SDS011;8713;48.388;10.928;2023-03-01T16:14:24;13.85;;;7.90;;
17193;SDS011;8713;48.388;10.928;2023-03-01T16:15:54;15.07;;;8.35;;
17193;SDS011;8713;48.388;10.928;2023-03-01T16:17:23;16.42;;;8.48;;
17193;SDS011;8713;48.388;10.928;2023-03-01T16:18:54;13.05;;;8.45;;
17193;SDS011;8713;48.388;10.928;2023-03-01T16:20:24;13.77;;;8.52;;
17193;SDS011;8713;48.388;10.928;2023-03-01T16:21:54;12.52;;;7.82;;
17193;SDS011;8713;48.388;10.928;2023-03-01T16:23:24;14.80;;;8.02;;
17193;SDS011;8713;48.388;10.928;2023-03-01T16:24:58;13.40;;;8.00;;
17193;SDS011;8713;48.388;10.928;2023-03-01T16:26:27;12.70;;;7.80;;
17193;SDS011;8713;48.388;10.928;2023-03-01T16:27:57;13.55;;;7.53;;
17193;SDS011;8713;48.388;10.928;2023-03-01T16:29:29;15.60;;;8.57;;
17193;SDS011;8713;48.388;10.928;2023-03-01T16:30:59;11.15;;;7.28;;
17193;SDS011;8713;48.388;10.928;2023-03-01T16:32:30;13.23;;;8.00;;
17193;SDS011;8713;48.388;10.928;2023-03-01T16:34:00;11.60;;;7.30;;
17193;SDS011;8713;48.388;10.928;2023-03-01T16:35:29;13.60;;;7.38;;
17193;SDS011;8713;48.388;10.928;2023-03-01T16:36:59;11.88;;;7.38;;
17193;SDS011;8713;48.388;10.928;2023-03-01T16:38:29;12.75;;;7.78;;
17193;SDS011;8713;48.388;10.928;2023-03-01T16:40:00;11.63;;;7.68;;
17193;SDS011;8713;48.388;10.928;2023-03-01T16:41:30;12.63;;;7.43;;
17193;SDS011;8713;48.388;10.928;2023-03-01T16:42:59;14.25;;;7.70;;
17193;SDS011;8713;48.388;10.928;2023-03-01T16:44:30;12.48;;;7.70;;
17193;SDS011;8713;48.388;10.928;2023-03-01T16:45:59;15.05;;;7.75;;
17193;SDS011;8713;48.388;10.928;2023-03-01T16:47:29;13.10;;;7.78;;
17193;SDS011;8713;48.388;10.928;2023-03-01T16:48:58;16.30;;;7.78;;
17193;SDS011;8713;48.388;10.928;2023-03-01T16:50:08;13.77;;;8.35;;
17193;SDS011;8713;48.388;10.928;2023-03-01T16:51:18;14.50;;;9.13;;
17193;SDS011;8713;48.388;10.928;2023-03-01T16:52:28;13.63;;;7.63;;
17193;SDS011;8713;48.388;10.928;2023-03-01T16:53:37;13.32;;;8.00;;
17193;SDS011;8713;48.388;10.928;2023-03-01T16:54:47;15.23;;;8.50;;
17193;SDS011;8713;48.388;10.928;2023-03-01T16:55:57;14.68;;;8.13;;
17193;SDS011;8713;48.388;10.928;2023-03-01T16:57:07;14.93;;;8.60;;
17193;SDS011;8713;48.388;10.928;2023-03-01T16:58:16;14.43;;;8.57;;
17193;SDS011;8713;48.388;10.928;2023-03-01T16:59:26;14.70;;;9.55;;
17193;SDS011;8713;48.388;10.928;2023-03-01T17:00:35;14.65;;;9.45;;
17193;SDS011;8713;48.388;10.928;2023-03-01T17:01:45;14.20;;;9.30;;
17193;SDS011;8713;48.388;10.928;2023-03-01T17:02:57;15.05;;;9.40;;
17193;SDS011;8713;48.388;10.928;2023-03-01T17:04:25;15.32;;;9.52;;
17193;SDS011;8713;48.388;10.928;2023-03-01T17:05:39;14.05;;;9.35;;
17193;SDS011;8713;48.388;10.928;2023-03-01T17:07:07;16.83;;;9.18;;